createdAt,value
2018-03-16T03:28:51.404Z,987.16
2018-03-16T03:29:51.364Z,987.16
2018-03-16T03:30:51.348Z,987.20
2018-03-16T03:31:51.580Z,987.25
2018-03-16T03:32:51.319Z,987.22
2018-03-16T03:33:51.301Z,987.24
2018-03-16T03:34:51.310Z,987.25
2018-03-16T03:35:51.325Z,987.28
2018-03-16T03:36:51.315Z,987.27
2018-03-16T03:38:00.484Z,987.21
2018-03-16T03:39:46.534Z,987.26
2018-03-16T03:40:46.525Z,987.26
2018-03-16T03:41:46.564Z,987.26
2018-03-16T03:42:46.499Z,987.28
2018-03-16T03:43:46.519Z,987.28
2018-03-16T03:44:46.487Z,987.29
2018-03-16T03:45:46.517Z,987.29
2018-03-16T03:46:46.468Z,987.32
2018-03-16T03:47:47.154Z,987.28
2018-03-16T03:48:46.455Z,987.32
2018-03-16T03:49:46.454Z,987.35
2018-03-16T03:50:46.444Z,987.41
2018-03-16T03:51:46.442Z,987.34
2018-03-16T03:52:46.433Z,987.37
2018-03-16T03:53:46.431Z,987.41
2018-03-16T03:54:46.421Z,987.46
2018-03-16T03:55:46.430Z,987.47
2018-03-16T03:56:46.461Z,987.48
2018-03-16T03:57:46.426Z,987.45
2018-03-16T03:58:46.411Z,987.48
2018-03-16T03:59:46.417Z,987.46
2018-03-16T04:00:46.404Z,987.49
2018-03-16T04:01:46.406Z,987.44
2018-03-16T04:02:46.394Z,987.42
2018-03-16T04:03:46.379Z,987.43
2018-03-16T04:04:46.381Z,987.41
2018-03-16T04:05:46.398Z,987.41
2018-03-16T04:06:46.364Z,987.42
2018-03-16T04:07:46.361Z,987.40
2018-03-16T04:08:46.357Z,987.41
2018-03-16T04:09:46.361Z,987.42
2018-03-16T04:10:46.343Z,987.40
2018-03-16T04:11:46.351Z,987.40
2018-03-16T04:12:46.411Z,987.39
2018-03-16T04:13:46.336Z,987.42
2018-03-16T04:14:46.339Z,987.40
2018-03-16T04:15:46.349Z,987.41
2018-03-16T04:16:46.319Z,987.41
2018-03-16T04:17:46.311Z,987.38
2018-03-16T04:18:46.354Z,987.39
2018-03-16T04:19:46.306Z,987.41
2018-03-16T04:20:46.330Z,987.40
2018-03-16T04:21:46.313Z,987.40
2018-03-16T04:22:46.292Z,987.34
2018-03-16T04:23:46.299Z,987.40
2018-03-16T04:24:46.284Z,987.36
2018-03-16T04:25:46.280Z,987.38
2018-03-16T04:26:46.288Z,987.37
2018-03-16T04:27:46.270Z,987.38
2018-03-16T04:28:46.262Z,987.36
2018-03-16T04:29:46.260Z,987.39
2018-03-16T04:30:46.269Z,987.38
2018-03-16T04:31:46.285Z,987.38
2018-03-16T04:32:46.254Z,987.38
2018-03-16T04:33:46.296Z,987.38
2018-03-16T04:34:46.258Z,987.37
2018-03-16T04:35:46.229Z,987.43
2018-03-16T04:36:46.229Z,987.42
2018-03-16T04:37:46.218Z,987.42
2018-03-16T04:38:46.221Z,987.42
2018-03-16T04:39:46.243Z,987.42
2018-03-16T04:40:46.210Z,987.44
2018-03-16T04:41:46.231Z,987.42
2018-03-16T04:42:46.224Z,987.46
2018-03-16T04:43:46.191Z,987.43
2018-03-16T04:44:46.186Z,987.47
2018-03-16T04:45:46.187Z,987.46
2018-03-16T04:46:46.181Z,987.49
2018-03-16T04:47:46.181Z,987.50
2018-03-16T04:48:46.179Z,987.55
2018-03-16T04:49:56.073Z,987.53
2018-03-16T04:51:39.895Z,987.54
2018-03-16T04:52:39.598Z,987.54
2018-03-16T04:53:39.655Z,987.49
2018-03-16T04:54:41.497Z,987.53
2018-03-16T04:55:39.578Z,987.55
2018-03-16T04:56:39.627Z,987.55
2018-03-16T04:57:39.572Z,987.57
2018-03-16T04:58:39.569Z,987.56
2018-03-16T04:59:39.723Z,987.61
2018-03-16T05:00:39.630Z,987.61
2018-03-16T05:01:39.533Z,987.61
2018-03-16T05:02:39.558Z,987.65
2018-03-16T05:03:39.532Z,987.64
2018-03-16T05:04:39.812Z,987.66
2018-03-16T05:05:39.544Z,987.66
2018-03-16T05:06:39.530Z,987.68
2018-03-16T05:07:39.506Z,987.67
2018-03-16T05:08:39.591Z,987.66
2018-03-16T05:09:39.546Z,987.67
2018-03-16T05:10:39.584Z,987.72
2018-03-16T05:11:39.515Z,987.71
2018-03-16T05:12:39.538Z,987.64
2018-03-16T05:13:39.475Z,987.70
2018-03-16T05:14:39.593Z,987.71
2018-03-16T05:15:39.493Z,987.73
2018-03-16T05:16:39.543Z,987.64
2018-03-16T05:17:39.455Z,987.69
2018-03-16T05:18:39.504Z,987.70
2018-03-16T05:19:39.449Z,987.72
2018-03-16T05:20:39.620Z,987.69
2018-03-16T05:21:39.450Z,987.73
2018-03-16T05:22:39.438Z,987.71
2018-03-16T05:23:39.445Z,987.75
2018-03-16T05:24:39.454Z,987.77
2018-03-16T05:25:39.421Z,987.78
2018-03-16T05:26:39.433Z,987.78
2018-03-16T05:27:39.407Z,987.80
2018-03-16T05:28:39.405Z,987.81
2018-03-16T05:29:39.404Z,987.83
2018-03-16T05:30:39.452Z,987.82
2018-03-16T05:31:39.415Z,987.86
2018-03-16T05:32:39.409Z,987.87
2018-03-16T05:33:39.406Z,987.87
2018-03-16T05:34:39.385Z,987.89
2018-03-16T05:35:39.372Z,987.89
2018-03-16T05:36:39.375Z,987.88
2018-03-16T05:37:39.472Z,987.89
2018-03-16T05:38:39.380Z,987.91
2018-03-16T05:39:39.364Z,987.93
2018-03-16T05:40:39.412Z,987.94
2018-03-16T05:41:39.478Z,987.97
2018-03-16T05:42:39.368Z,987.98
2018-03-16T05:43:39.328Z,987.98
2018-03-16T05:44:39.319Z,987.97
2018-03-16T05:45:39.379Z,988.00
2018-03-16T05:46:39.321Z,988.01
2018-03-16T05:47:39.309Z,988.00
2018-03-16T05:48:39.358Z,988.00
2018-03-16T05:49:39.308Z,988.02
2018-03-16T05:50:39.295Z,988.08
2018-03-16T05:51:39.295Z,988.02
2018-03-16T05:52:39.308Z,987.98
2018-03-16T05:53:39.274Z,987.99
2018-03-16T05:54:39.270Z,988.05
2018-03-16T05:55:39.275Z,988.05
2018-03-16T05:56:39.289Z,988.10
2018-03-16T05:57:39.295Z,988.11
2018-03-16T05:58:39.280Z,988.09
2018-03-16T05:59:39.275Z,988.09
2018-03-16T06:00:39.320Z,988.10
2018-03-16T06:01:39.238Z,988.07
2018-03-16T06:02:48.971Z,988.08
2018-03-16T06:04:32.898Z,988.12
2018-03-16T06:05:41.376Z,988.14
2018-03-16T06:07:27.967Z,988.14
2018-03-16T06:09:47.072Z,988.19
2018-03-16T06:10:56.916Z,988.24
2018-03-16T06:12:45.639Z,988.24
2018-03-16T06:13:42.662Z,988.19
2018-03-16T06:14:42.695Z,988.27
2018-03-16T06:15:42.959Z,988.26
2018-03-16T06:16:42.618Z,988.27
2018-03-16T06:17:42.608Z,988.28
2018-03-16T06:18:42.624Z,988.28
2018-03-16T06:19:51.756Z,988.29
2018-03-16T06:21:37.201Z,988.31
2018-03-16T06:22:37.008Z,988.30
2018-03-16T06:24:31.398Z,988.36
2018-03-16T06:25:31.415Z,988.30
2018-03-16T06:26:31.854Z,988.34
2018-03-16T06:27:31.434Z,988.36
2018-03-16T06:28:31.579Z,988.35
2018-03-16T06:29:31.337Z,988.31
2018-03-16T06:30:31.330Z,988.37
2018-03-16T06:31:31.341Z,988.33
2018-03-16T06:32:31.319Z,988.35
2018-03-16T06:33:31.314Z,988.32
2018-03-16T06:34:31.320Z,988.35
2018-03-16T06:35:31.310Z,988.36
2018-03-16T06:36:31.297Z,988.41
2018-03-16T06:37:31.294Z,988.39
2018-03-16T06:38:31.290Z,988.39
2018-03-16T06:39:31.322Z,988.41
2018-03-16T06:40:31.280Z,988.42
2018-03-16T06:41:31.286Z,988.45
2018-03-16T06:42:31.289Z,988.46
2018-03-16T06:43:31.263Z,988.47
2018-03-16T06:44:31.269Z,988.47
2018-03-16T06:45:31.275Z,988.48
2018-03-16T06:46:31.246Z,988.48
2018-03-16T06:47:31.277Z,988.49
2018-03-16T06:48:31.244Z,988.50
2018-03-16T06:49:31.240Z,988.52
2018-03-16T06:50:31.222Z,988.49
2018-03-16T06:51:31.270Z,988.54
2018-03-16T06:52:31.384Z,988.55
2018-03-16T06:53:31.261Z,988.60
2018-03-16T06:54:31.308Z,988.58
2018-03-16T06:55:31.341Z,988.63
2018-03-16T06:56:31.268Z,988.60
2018-03-16T06:57:31.215Z,988.61
2018-03-16T06:58:31.201Z,988.60
2018-03-16T06:59:31.192Z,988.59
2018-03-16T07:00:31.202Z,988.54
2018-03-16T07:01:31.214Z,988.60
2018-03-16T07:02:31.222Z,988.63
2018-03-16T07:03:31.189Z,988.62
2018-03-16T07:04:31.862Z,988.63
2018-03-16T07:05:31.150Z,988.66
2018-03-16T07:06:31.198Z,988.67
2018-03-16T07:07:31.228Z,988.67
2018-03-16T07:08:31.192Z,988.71
2018-03-16T07:09:31.165Z,988.69
2018-03-16T07:10:31.236Z,988.69
2018-03-16T07:11:31.175Z,988.74
2018-03-16T07:12:31.142Z,988.74
2018-03-16T07:13:31.210Z,988.72
2018-03-16T07:14:31.188Z,988.78
2018-03-16T07:15:31.110Z,988.79
2018-03-16T07:16:31.123Z,988.80
2018-03-16T07:17:31.147Z,988.82
2018-03-16T07:18:31.123Z,988.84
2018-03-16T07:19:31.074Z,988.80
2018-03-16T07:20:31.064Z,988.83
2018-03-16T07:21:31.073Z,988.84
2018-03-16T07:22:31.117Z,988.85
2018-03-16T07:23:31.058Z,988.89
2018-03-16T07:24:31.072Z,988.88
2018-03-16T07:25:31.056Z,988.90
2018-03-16T07:26:31.038Z,988.90
2018-03-16T07:27:31.082Z,988.93
2018-03-16T07:28:31.037Z,988.86
2018-03-16T07:29:31.083Z,988.90
2018-03-16T07:30:31.013Z,988.91
2018-03-16T07:31:31.008Z,988.92
2018-03-16T07:32:31.118Z,988.94
2018-03-16T07:33:31.022Z,988.93
2018-03-16T07:34:31.000Z,988.96
2018-03-16T07:35:31.151Z,988.98
2018-03-16T07:36:31.119Z,988.96
2018-03-16T07:37:31.006Z,988.99
2018-03-16T07:38:31.061Z,989.00
2018-03-16T07:39:31.079Z,989.00
2018-03-16T07:40:31.084Z,989.02
2018-03-16T07:41:31.000Z,989.00
2018-03-16T07:42:30.999Z,989.07
2018-03-16T07:43:31.024Z,989.05
2018-03-16T07:44:31.108Z,988.99
2018-03-16T07:45:30.981Z,989.06
2018-03-16T07:46:30.998Z,989.05
2018-03-16T07:47:30.973Z,989.09
2018-03-16T07:48:30.943Z,989.12
2018-03-16T07:49:30.949Z,989.15
2018-03-16T07:50:30.933Z,989.17
2018-03-16T07:51:30.950Z,989.12
2018-03-16T07:52:30.940Z,989.12
2018-03-16T07:53:30.898Z,989.14
2018-03-16T07:54:30.878Z,989.20
2018-03-16T07:55:30.933Z,989.23
2018-03-16T07:56:30.873Z,989.21
2018-03-16T07:57:30.937Z,989.20
2018-03-16T07:58:30.897Z,989.20
2018-03-16T07:59:30.891Z,989.22
2018-03-16T08:00:30.989Z,989.23
2018-03-16T08:01:30.987Z,989.25
2018-03-16T08:02:30.868Z,989.23
2018-03-16T08:03:30.924Z,989.25
2018-03-16T08:04:30.835Z,989.26
2018-03-16T08:05:30.837Z,989.25
2018-03-16T08:06:30.842Z,989.28
2018-03-16T08:07:30.857Z,989.28
2018-03-16T08:08:30.871Z,989.29
2018-03-16T08:09:30.856Z,989.26
2018-03-16T08:10:30.871Z,989.30
2018-03-16T08:11:30.821Z,989.32
2018-03-16T08:12:30.792Z,989.27
2018-03-16T08:13:30.987Z,989.31
2018-03-16T08:14:30.796Z,989.30
2018-03-16T08:15:30.795Z,989.31
2018-03-16T08:16:30.770Z,989.33
2018-03-16T08:17:30.801Z,989.29
2018-03-16T08:18:30.808Z,989.33
2018-03-16T08:19:30.882Z,989.37
2018-03-16T08:20:30.775Z,989.29
2018-03-16T08:21:30.748Z,989.31
2018-03-16T08:22:30.848Z,989.38
2018-03-16T08:23:30.751Z,989.30
2018-03-16T08:24:30.840Z,989.37
2018-03-16T08:25:30.728Z,989.38
2018-03-16T08:26:30.730Z,989.38
2018-03-16T08:27:30.718Z,989.36
2018-03-16T08:28:30.731Z,989.35
2018-03-16T08:29:40.160Z,989.34
2018-03-16T08:31:24.119Z,989.35
2018-03-16T08:32:24.139Z,989.35
2018-03-16T08:33:24.111Z,989.39
2018-03-16T08:34:24.177Z,989.38
2018-03-16T08:35:24.081Z,989.39
2018-03-16T08:36:24.074Z,989.37
2018-03-16T08:38:45.680Z,989.39
2018-03-16T08:39:45.126Z,989.43
2018-03-16T08:40:45.132Z,989.40
2018-03-16T08:41:45.356Z,989.44
2018-03-16T08:42:45.107Z,989.46
2018-03-16T08:43:45.081Z,989.44
2018-03-16T08:44:45.121Z,989.44
2018-03-16T08:45:53.967Z,989.43
2018-03-16T08:47:38.952Z,989.47
2018-03-16T08:48:38.864Z,989.46
2018-03-16T08:49:38.980Z,989.43
2018-03-16T08:50:39.054Z,989.50
2018-03-16T08:51:38.835Z,989.47
2018-03-16T08:52:38.825Z,989.50
2018-03-16T08:53:38.830Z,989.48
2018-03-16T08:54:38.821Z,989.50
2018-03-16T08:55:38.817Z,989.46
2018-03-16T08:56:38.834Z,989.45
2018-03-16T08:57:38.803Z,989.49
2018-03-16T08:58:38.811Z,989.53
2018-03-16T08:59:38.803Z,989.50
2018-03-16T09:00:38.795Z,989.46
2018-03-16T09:01:38.792Z,989.51
2018-03-16T09:02:38.801Z,989.52
2018-03-16T09:03:38.792Z,989.52
2018-03-16T09:04:38.811Z,989.51
2018-03-16T09:05:38.773Z,989.54
2018-03-16T09:06:38.780Z,989.56
2018-03-16T09:07:38.776Z,989.55
2018-03-16T09:08:38.764Z,989.53
2018-03-16T09:09:38.764Z,989.52
2018-03-16T09:10:38.760Z,989.50
2018-03-16T09:11:38.836Z,989.51
2018-03-16T09:12:38.828Z,989.54
2018-03-16T09:13:38.741Z,989.52
2018-03-16T09:14:38.735Z,989.52
2018-03-16T09:15:38.763Z,989.52
2018-03-16T09:16:38.744Z,989.58
2018-03-16T09:17:38.747Z,989.55
2018-03-16T09:18:38.723Z,989.62
2018-03-16T09:19:38.747Z,989.57
2018-03-16T09:20:38.724Z,989.58
2018-03-16T09:21:38.707Z,989.57
2018-03-16T09:22:38.702Z,989.62
2018-03-16T09:23:38.698Z,989.60
2018-03-16T09:24:38.705Z,989.59
2018-03-16T09:25:38.711Z,989.65
2018-03-16T09:26:38.714Z,989.63
2018-03-16T09:27:38.701Z,989.63
2018-03-16T09:28:38.684Z,989.67
2018-03-16T09:29:38.668Z,989.69
2018-03-16T09:30:38.675Z,989.70
2018-03-16T09:31:38.670Z,989.69
2018-03-16T09:32:38.665Z,989.70
2018-03-16T09:33:38.656Z,989.72
2018-03-16T09:34:38.647Z,989.73
2018-03-16T09:35:38.647Z,989.71
2018-03-16T09:36:38.660Z,989.77
2018-03-16T09:37:38.642Z,989.78
2018-03-16T09:38:38.634Z,989.81
2018-03-16T09:39:38.682Z,989.85
2018-03-16T09:40:38.624Z,989.78
2018-03-16T09:41:38.626Z,989.79
2018-03-16T09:43:59.690Z,989.85
2018-03-16T09:44:59.692Z,989.85
2018-03-16T09:45:59.702Z,989.80
2018-03-16T09:46:59.738Z,989.83
2018-03-16T09:47:59.661Z,989.82
2018-03-16T09:48:59.661Z,989.83
2018-03-16T09:49:59.684Z,989.81
2018-03-16T09:50:59.668Z,989.81
2018-03-16T09:53:20.720Z,989.82
2018-03-16T09:54:20.710Z,989.82
2018-03-16T09:55:29.390Z,989.77
2018-03-16T09:57:23.097Z,989.85
2018-03-16T09:58:22.769Z,989.87
2018-03-16T10:00:08.519Z,989.80
2018-03-16T10:01:08.473Z,989.82
2018-03-16T10:02:08.572Z,989.84
2018-03-16T10:03:08.445Z,989.80
2018-03-16T10:04:08.430Z,989.85
2018-03-16T10:05:08.430Z,989.85
2018-03-16T10:06:08.427Z,989.84
2018-03-16T10:07:08.429Z,989.85
2018-03-16T10:08:08.433Z,989.81
2018-03-16T10:09:08.425Z,989.78
2018-03-16T10:10:08.433Z,989.80
2018-03-16T10:11:08.471Z,989.84
2018-03-16T10:12:08.483Z,989.83
2018-03-16T10:13:08.487Z,989.77
2018-03-16T10:14:08.498Z,989.80
2018-03-16T10:15:08.461Z,989.82
2018-03-16T10:16:08.424Z,989.80
2018-03-16T10:17:08.406Z,989.83
2018-03-16T10:18:08.490Z,989.83
2018-03-16T10:19:08.500Z,989.76
2018-03-16T10:20:08.424Z,989.79
2018-03-16T10:21:08.444Z,989.82
2018-03-16T10:22:08.409Z,989.82
2018-03-16T10:23:08.430Z,989.80
2018-03-16T10:24:08.384Z,989.84
2018-03-16T10:25:08.376Z,989.80
2018-03-16T10:26:08.402Z,989.82
2018-03-16T10:27:08.436Z,989.80
2018-03-16T10:28:08.404Z,989.70
2018-03-16T10:29:08.359Z,989.77
2018-03-16T10:30:08.454Z,989.74
2018-03-16T10:31:08.456Z,989.79
2018-03-16T10:32:08.417Z,989.79
2018-03-16T10:33:08.347Z,989.80
2018-03-16T10:34:08.402Z,989.81
2018-03-16T10:35:08.387Z,989.84
2018-03-16T10:36:08.341Z,989.80
2018-03-16T10:37:08.390Z,989.84
2018-03-16T10:38:08.347Z,989.83
2018-03-16T10:39:08.323Z,989.85
2018-03-16T10:40:08.323Z,989.90
2018-03-16T10:41:08.335Z,989.94
2018-03-16T10:42:08.313Z,989.93
2018-03-16T10:43:08.310Z,989.87
2018-03-16T10:44:08.335Z,989.93
2018-03-16T10:45:08.314Z,989.96
2018-03-16T10:46:08.310Z,989.85
2018-03-16T10:47:08.295Z,989.95
2018-03-16T10:48:08.321Z,989.96
2018-03-16T10:49:08.295Z,989.96
2018-03-16T10:50:08.287Z,989.95
2018-03-16T10:51:08.284Z,989.93
2018-03-16T10:52:08.286Z,989.95
2018-03-16T10:53:08.290Z,989.92
2018-03-16T10:54:08.290Z,989.92
2018-03-16T10:55:08.271Z,989.91
2018-03-16T10:56:08.272Z,989.92
2018-03-16T10:57:08.265Z,989.91
2018-03-16T10:58:08.291Z,989.97
2018-03-16T10:59:08.281Z,989.97
2018-03-16T11:00:08.281Z,989.94
2018-03-16T11:01:08.251Z,989.94
2018-03-16T11:02:08.258Z,989.97
2018-03-16T11:03:08.250Z,989.94
2018-03-16T11:04:08.252Z,989.99
2018-03-16T11:05:08.239Z,989.94
2018-03-16T11:06:08.238Z,989.99
2018-03-16T11:07:08.236Z,989.99
2018-03-16T11:08:08.262Z,989.93
2018-03-16T11:09:08.255Z,990.00
2018-03-16T11:10:08.254Z,989.97
2018-03-16T11:11:08.270Z,989.89
2018-03-16T11:12:08.216Z,989.95
2018-03-16T11:13:17.086Z,989.97
2018-03-16T11:15:01.704Z,989.91
2018-03-16T11:16:01.621Z,990.01
2018-03-16T11:17:01.641Z,989.95
2018-03-16T11:18:01.638Z,990.02
2018-03-16T11:19:11.398Z,990.02
2018-03-16T11:20:55.092Z,990.02
2018-03-16T11:21:55.005Z,990.03
2018-03-16T11:22:55.050Z,990.06
2018-03-16T11:23:55.001Z,990.11
2018-03-16T11:24:55.249Z,990.12
2018-03-16T11:25:55.008Z,990.06
2018-03-16T11:26:54.967Z,990.05
2018-03-16T11:27:54.973Z,990.09
2018-03-16T11:28:54.985Z,990.11
2018-03-16T11:29:54.961Z,990.08
2018-03-16T11:30:54.971Z,990.08
2018-03-16T11:31:54.971Z,990.10
2018-03-16T11:32:54.948Z,990.08
2018-03-16T11:33:54.940Z,990.08
2018-03-16T11:34:54.957Z,990.07
2018-03-16T11:35:54.947Z,990.15
2018-03-16T11:36:54.932Z,990.13
2018-03-16T11:37:54.949Z,990.11
2018-03-16T11:38:54.938Z,990.12
2018-03-16T11:39:54.935Z,990.03
2018-03-16T11:40:54.922Z,990.15
2018-03-16T11:41:54.925Z,990.12
2018-03-16T11:42:54.944Z,990.14
2018-03-16T11:43:54.914Z,990.06
2018-03-16T11:44:54.905Z,990.17
2018-03-16T11:45:54.908Z,990.11
2018-03-16T11:46:54.908Z,990.11
2018-03-16T11:47:54.894Z,990.14
2018-03-16T11:48:54.951Z,990.14
2018-03-16T11:49:55.038Z,990.14
2018-03-16T11:50:54.995Z,990.15
2018-03-16T11:51:54.948Z,990.13
2018-03-16T11:52:54.932Z,990.15
2018-03-16T11:53:54.893Z,990.15
2018-03-16T11:54:54.877Z,990.17
2018-03-16T11:55:54.917Z,990.22
2018-03-16T11:56:54.861Z,990.13
2018-03-16T11:57:54.861Z,990.15
2018-03-16T11:58:54.891Z,990.11
2018-03-16T11:59:54.860Z,990.12
2018-03-16T12:00:54.870Z,990.14
2018-03-16T12:01:54.853Z,990.16
2018-03-16T12:02:54.849Z,990.11
2018-03-16T12:03:54.864Z,990.14
2018-03-16T12:04:54.874Z,990.15
2018-03-16T12:05:54.855Z,990.14
2018-03-16T12:06:54.847Z,990.14
2018-03-16T12:08:03.730Z,990.13
2018-03-16T12:09:48.274Z,990.12
2018-03-16T12:10:48.288Z,990.16
2018-03-16T12:11:48.253Z,990.15
2018-03-16T12:12:48.301Z,990.10
2018-03-16T12:13:48.231Z,990.14
2018-03-16T12:14:48.226Z,990.06
2018-03-16T12:15:48.221Z,990.15
2018-03-16T12:16:48.225Z,990.13
2018-03-16T12:17:48.239Z,990.14
2018-03-16T12:18:48.219Z,990.20
2018-03-16T12:19:48.240Z,990.14
2018-03-16T12:20:48.224Z,990.18
2018-03-16T12:21:48.217Z,990.20
2018-03-16T12:22:48.202Z,990.18
2018-03-16T12:23:48.230Z,990.06
2018-03-16T12:24:48.205Z,990.13
2018-03-16T12:25:48.202Z,990.07
2018-03-16T12:26:48.195Z,990.09
2018-03-16T12:27:48.223Z,990.07
2018-03-16T12:28:50.014Z,990.07
2018-03-16T12:29:48.191Z,990.00
2018-03-16T12:30:48.193Z,989.99
2018-03-16T12:31:48.235Z,990.01
2018-03-16T12:32:48.233Z,989.98
2018-03-16T12:33:48.181Z,990.00
2018-03-16T12:34:48.432Z,989.96
2018-03-16T12:35:48.214Z,989.99
2018-03-16T12:36:48.169Z,989.91
2018-03-16T12:37:48.219Z,989.93
2018-03-16T12:38:48.172Z,989.91
2018-03-16T12:39:48.188Z,989.85
2018-03-16T12:40:48.189Z,989.85
2018-03-16T12:41:48.193Z,989.83
2018-03-16T12:42:48.161Z,989.84
2018-03-16T12:43:48.175Z,989.84
2018-03-16T12:44:48.184Z,989.81
2018-03-16T12:45:48.188Z,989.82
2018-03-16T12:46:48.245Z,989.83
2018-03-16T12:47:48.178Z,989.82
2018-03-16T12:48:48.155Z,989.82
2018-03-16T12:49:48.156Z,989.81
2018-03-16T12:50:48.390Z,989.80
2018-03-16T12:51:48.157Z,989.73
2018-03-16T12:52:48.162Z,989.74
2018-03-16T12:53:48.165Z,989.75
2018-03-16T12:54:48.255Z,989.71
2018-03-16T12:55:48.199Z,989.76
2018-03-16T12:58:10.236Z,989.69
2018-03-16T12:59:10.338Z,989.68
2018-03-16T13:00:10.367Z,989.71
2018-03-16T13:01:10.235Z,989.69
2018-03-16T13:02:10.339Z,989.74
2018-03-16T13:03:10.255Z,989.66
2018-03-16T13:04:10.254Z,989.63
2018-03-16T13:05:10.210Z,989.63
2018-03-16T13:06:10.282Z,989.58
2018-03-16T13:07:10.181Z,989.62
2018-03-16T13:08:10.308Z,989.60
2018-03-16T13:09:10.176Z,989.62
2018-03-16T13:10:10.266Z,989.57
2018-03-16T13:11:10.212Z,989.53
2018-03-16T13:12:10.205Z,989.59
2018-03-16T13:13:10.210Z,989.62
2018-03-16T13:14:10.400Z,989.52
2018-03-16T13:15:10.231Z,989.59
2018-03-16T13:16:10.180Z,989.57
2018-03-16T13:17:10.269Z,989.51
2018-03-16T13:18:10.150Z,989.52
2018-03-16T13:19:10.236Z,989.56
2018-03-16T13:20:10.255Z,989.51
2018-03-16T13:21:10.147Z,989.50
2018-03-16T13:22:10.186Z,989.43
2018-03-16T13:23:10.185Z,989.48
2018-03-16T13:24:10.198Z,989.52
2018-03-16T13:25:10.158Z,989.49
2018-03-16T13:26:10.143Z,989.48
2018-03-16T13:27:10.230Z,989.41
2018-03-16T13:28:10.137Z,989.47
2018-03-16T13:29:10.129Z,989.48
2018-03-16T13:30:10.153Z,989.52
2018-03-16T13:31:10.137Z,989.46
2018-03-16T13:32:10.133Z,989.51
2018-03-16T13:33:10.174Z,989.52
2018-03-16T13:34:10.126Z,989.51
2018-03-16T13:35:10.131Z,989.51
2018-03-16T13:36:10.158Z,989.46
2018-03-16T13:37:10.118Z,989.50
2018-03-16T13:38:10.119Z,989.47
2018-03-16T13:39:10.243Z,989.51
2018-03-16T13:40:10.157Z,989.46
2018-03-16T13:41:10.163Z,989.48
2018-03-16T13:42:10.122Z,989.58
2018-03-16T13:43:10.105Z,989.53
2018-03-16T13:44:10.114Z,989.53
2018-03-16T13:45:10.116Z,989.54
2018-03-16T13:47:31.204Z,989.53
2018-03-16T13:48:31.220Z,989.52
2018-03-16T13:49:31.312Z,989.47
2018-03-16T13:50:31.289Z,989.52
2018-03-16T13:51:31.127Z,989.49
2018-03-16T13:52:31.151Z,989.49
2018-03-16T13:53:31.134Z,989.50
2018-03-16T13:54:39.847Z,989.56
2018-03-16T13:56:25.649Z,989.58
2018-03-16T13:57:25.531Z,989.52
2018-03-16T13:58:25.528Z,989.51
2018-03-16T13:59:25.518Z,989.54
2018-03-16T14:00:25.570Z,989.53
2018-03-16T14:01:25.667Z,989.46
2018-03-16T14:02:25.500Z,989.49
2018-03-16T14:03:25.491Z,989.49
2018-03-16T14:04:25.493Z,989.46
2018-03-16T14:05:25.486Z,989.47
2018-03-16T14:06:25.755Z,989.50
2018-03-16T14:07:25.538Z,989.49
2018-03-16T14:08:25.502Z,989.44
2018-03-16T14:09:25.481Z,989.47
2018-03-16T14:10:25.513Z,989.47
2018-03-16T14:11:25.493Z,989.41
2018-03-16T14:12:25.501Z,989.43
2018-03-16T14:13:25.487Z,989.43
2018-03-16T14:14:25.548Z,989.40
2018-03-16T14:15:25.506Z,989.41
2018-03-16T14:16:25.476Z,989.40
2018-03-16T14:17:25.476Z,989.42
2018-03-16T14:18:25.483Z,989.45
2018-03-16T14:19:25.522Z,989.46
2018-03-16T14:20:25.498Z,989.52
2018-03-16T14:21:25.482Z,989.49
2018-03-16T14:22:25.498Z,989.50
2018-03-16T14:23:25.513Z,989.50
2018-03-16T14:24:25.471Z,989.50
2018-03-16T14:25:25.486Z,989.46
2018-03-16T14:26:25.520Z,989.48
2018-03-16T14:27:25.469Z,989.49
2018-03-16T14:28:25.461Z,989.49
2018-03-16T14:29:25.460Z,989.55
2018-03-16T14:30:25.511Z,989.51
2018-03-16T14:31:25.492Z,989.50
2018-03-16T14:32:25.459Z,989.49
2018-03-16T14:33:25.548Z,989.48
2018-03-16T14:34:25.469Z,989.47
2018-03-16T14:35:25.451Z,989.48
2018-03-16T14:36:25.465Z,989.47
2018-03-16T14:37:25.464Z,989.49
2018-03-16T14:38:25.463Z,989.53
2018-03-16T14:39:25.472Z,989.50
2018-03-16T14:40:25.465Z,989.47
2018-03-16T14:41:25.459Z,989.47
2018-03-16T14:42:25.451Z,989.49
2018-03-16T14:43:25.478Z,989.50
2018-03-16T14:44:25.458Z,989.51
2018-03-16T14:45:25.478Z,989.52
2018-03-16T14:46:25.445Z,989.51
2018-03-16T14:47:25.461Z,989.52
2018-03-16T14:48:25.452Z,989.52
2018-03-16T14:49:25.440Z,989.55
2018-03-16T14:50:25.440Z,989.50
2018-03-16T14:51:25.438Z,989.54
2018-03-16T14:52:25.545Z,989.48
2018-03-16T14:53:25.479Z,989.52
2018-03-16T14:54:25.439Z,989.48
2018-03-16T14:55:25.432Z,989.44
2018-03-16T14:56:25.449Z,989.45
2018-03-16T14:57:25.456Z,989.42
2018-03-16T14:58:25.444Z,989.41
2018-03-16T14:59:25.463Z,989.40
2018-03-16T15:00:25.453Z,989.43
2018-03-16T15:01:25.431Z,989.44
2018-03-16T15:02:25.426Z,989.42
2018-03-16T15:03:25.426Z,989.46
2018-03-16T15:04:34.253Z,989.42
2018-03-16T15:06:20.110Z,989.41
2018-03-16T15:07:19.860Z,989.37
2018-03-16T15:08:19.876Z,989.40
2018-03-16T15:09:19.832Z,989.33
2018-03-16T15:10:19.850Z,989.34
2018-03-16T15:11:19.834Z,989.33
2018-03-16T15:12:19.962Z,989.33
2018-03-16T15:13:19.864Z,989.34
2018-03-16T15:14:19.825Z,989.34
2018-03-16T15:15:19.823Z,989.29
